Time;durP1;ratioP1;P1;durP2;ratioP2;P2;SDS_P1;SDS_P2;PMS_P1;PMS_P2;Temp;Humidity;BMP_temperature;BMP_pressure;BME280_temperature;BME280_humidity;BME280_pressure;Samples;Min_cycle;Max_cycle;Signal;HPM_P1;HPM_P2
2022/11/04 00:01:45;;;;;;;16.80;6.67;;;5.50;99.90;;;;;;5010243;28;20046;-66
2022/11/04 00:04:15;;;;;;;15.05;6.63;;;5.40;99.90;;;;;;5020383;28;20513;-65
2022/11/04 00:06:43;;;;;;;22.60;7.22;;;5.40;99.90;;;;;;5018770;28;20053;-62
2022/11/04 00:09:16;;;;;;;23.30;5.78;;;5.40;99.90;;;;;;5028453;28;20049;-62
2022/11/04 00:14:31;;;;;;;14.25;4.78;;;5.30;99.90;;;;;;5028592;28;20049;-63
2022/11/04 00:17:18;;;;;;;17.92;4.80;;;5.30;99.90;;;;;;5023480;28;20049;-64
2022/11/04 00:33:58;;;;;;;22.92;5.15;;;5.10;99.90;;;;;;5027937;28;20048;-64
2022/11/04 00:36:26;;;;;;;17.40;4.45;;;6.30;99.90;;;;;;5016212;28;20526;-61
2022/11/04 00:38:54;;;;;;;8.45;3.58;;;5.00;99.90;;;;;;5024973;28;20404;-71
2022/11/04 00:41:24;;;;;;;17.13;5.10;;;5.00;99.90;;;;;;5026823;28;20047;-62
2022/11/04 00:43:58;;;;;;;20.02;4.90;;;5.00;99.90;;;;;;5027754;28;20045;-64
2022/11/04 00:46:27;;;;;;;10.70;4.38;;;4.90;99.90;;;;;;5020507;28;20046;-64
2022/11/04 00:48:55;;;;;;;16.55;5.20;;;4.90;99.90;;;;;;5027007;28;20052;-65
2022/11/04 00:51:23;;;;;;;15.50;4.97;;;4.90;99.90;;;;;;5008806;28;20038;-61
2022/11/04 00:53:51;;;;;;;13.38;4.75;;;4.80;99.90;;;;;;5013777;28;20517;-64
2022/11/04 00:56:19;;;;;;;17.63;4.45;;;4.80;99.90;;;;;;5011929;28;20044;-61
2022/11/04 00:58:48;;;;;;;15.70;4.18;;;;;;;;;;5022559;28;20068;-68
2022/11/04 01:01:17;;;;;;;;;;;4.80;99.90;;;;;;5022159;28;20077;-64
2022/11/04 01:03:47;;;;;;;17.10;4.38;;;4.70;99.90;;;;;;5012706;28;19921;-64
2022/11/04 01:06:15;;;;;;;12.13;4.55;;;4.70;99.90;;;;;;5020228;28;20313;-65
2022/11/04 01:08:43;;;;;;;13.85;3.65;;;4.70;99.90;;;;;;5015215;28;20042;-62
2022/11/04 01:11:11;;;;;;;19.65;4.63;;;4.60;99.90;;;;;;5014042;28;20049;-61
2022/11/04 01:13:41;;;;;;;;;;;4.60;99.90;;;;;;5013955;28;20061;-61
2022/11/04 01:16:10;;;;;;;16.98;3.88;;;4.60;99.90;;;;;;5018758;28;19921;-62
2022/11/04 01:18:39;;;;;;;12.00;3.80;;;4.60;99.90;;;;;;5016620;28;20042;-71
2022/11/04 01:21:09;;;;;;;14.30;4.10;;;4.60;99.90;;;;;;5020744;28;20042;-62
2022/11/04 01:23:37;;;;;;;10.60;3.35;;;4.60;99.90;;;;;;5018133;28;20045;-61
2022/11/04 01:26:07;;;;;;;15.30;3.50;;;4.60;99.90;;;;;;5013442;28;20481;-66
2022/11/04 01:28:35;;;;;;;15.65;4.13;;;4.60;99.90;;;;;;5025695;28;20061;-72
2022/11/04 01:31:07;;;;;;;17.02;5.85;;;5.20;99.90;;;;;;5008917;28;20050;-70
2022/11/04 01:33:35;;;;;;;19.83;5.10;;;4.60;99.90;;;;;;5013569;28;20686;-68
2022/11/04 01:36:05;;;;;;;22.65;5.57;;;4.60;99.90;;;;;;5014267;28;20056;-64
2022/11/04 01:38:32;;;;;;;17.13;6.38;;;4.60;99.90;;;;;;5014504;28;20391;-68
2022/11/04 01:41:01;;;;;;;23.00;6.32;;;4.60;99.90;;;;;;5027481;28;20563;-72
2022/11/04 01:44:01;;;;;;;20.98;6.72;;;4.60;99.90;;;;;;5026509;28;20494;-71
2022/11/04 01:46:45;;;;;;;21.63;6.32;;;4.60;99.90;;;;;;5009331;28;20042;-71
2022/11/04 01:49:26;;;;;;;25.17;7.18;;;4.60;99.90;;;;;;5022302;28;20060;-65
2022/11/04 01:52:05;;;;;;;18.65;6.72;;;4.60;99.90;;;;;;5008579;28;20046;-68
2022/11/04 01:54:34;;;;;;;16.52;6.50;;;4.60;99.90;;;;;;5019267;28;20045;-63
2022/11/04 01:57:07;;;;;;;20.15;7.38;;;4.50;99.90;;;;;;5027191;28;20049;-66
2022/11/04 01:59:39;;;;;;;20.13;7.68;;;4.50;99.90;;;;;;5015988;28;20041;-68
2022/11/04 02:02:07;;;;;;;22.80;6.85;;;4.40;99.90;;;;;;5009061;28;20049;-71
2022/11/04 02:04:36;;;;;;;15.20;6.85;;;4.40;99.90;;;;;;5026055;28;20393;-69
2022/11/04 02:07:07;;;;;;;17.23;6.47;;;4.40;99.90;;;;;;5021941;28;20049;-65
2022/11/04 02:09:37;;;;;;;22.90;7.95;;;4.40;99.90;;;;;;5024775;28;20623;-66
2022/11/04 02:14:52;;;;;;;22.60;7.82;;;4.30;99.90;;;;;;5022218;28;20053;-65
2022/11/04 02:17:45;;;;;;;22.75;7.88;;;4.30;99.90;;;;;;5022056;28;20049;-64
2022/11/04 02:20:22;;;;;;;24.20;7.25;;;4.20;99.90;;;;;;5016025;28;20066;-63
2022/11/04 02:23:30;;;;;;;21.48;7.45;;;4.20;99.90;;;;;;5015254;28;20053;-63
2022/11/04 02:26:24;;;;;;;18.33;7.40;;;4.20;99.90;;;;;;5013120;28;20057;-66
2022/11/04 02:29:18;;;;;;;20.33;7.70;;;4.10;99.90;;;;;;5013025;28;20057;-73
2022/11/04 02:32:10;;;;;;;28.92;9.02;;;4.10;99.90;;;;;;5013540;28;20050;-62
2022/11/04 02:34:45;;;;;;;25.48;7.47;;;4.10;99.90;;;;;;5022289;28;20492;-61
2022/11/04 02:37:49;;;;;;;19.17;7.45;;;4.00;99.90;;;;;;5014809;28;20061;-62
2022/11/04 02:40:32;;;;;;;18.45;7.30;;;4.00;99.90;;;;;;5014650;28;20049;-61
2022/11/04 02:43:21;;;;;;;19.95;7.57;;;4.00;99.90;;;;;;5010813;28;20042;-61
2022/11/04 02:46:02;;;;;;;19.43;7.30;;;3.90;99.90;;;;;;5015301;28;20124;-69
2022/11/04 02:48:39;;;;;;;15.93;6.88;;;3.90;99.90;;;;;;5028839;28;20290;-62
2022/11/04 02:51:22;;;;;;;21.67;7.22;;;3.90;99.90;;;;;;5026244;28;20046;-61
2022/11/04 02:54:03;;;;;;;23.67;7.97;;;3.90;99.90;;;;;;5011590;28;20046;-68
2022/11/04 02:56:39;;;;;;;23.02;7.60;;;3.80;99.90;;;;;;5009923;28;20046;-67
2022/11/04 02:59:14;;;;;;;17.98;8.25;;;3.80;99.90;;;;;;4993481;28;20049;-62
2022/11/04 03:01:44;;;;;;;22.40;7.72;;;3.90;99.90;;;;;;5011212;28;20049;-61
2022/11/04 03:04:20;;;;;;;19.77;8.20;;;3.80;99.90;;;;;;5011399;28;20061;-62
2022/11/04 03:06:49;;;;;;;18.77;7.82;;;3.80;99.90;;;;;;5011101;28;20053;-61
2022/11/04 03:09:18;;;;;;;19.42;8.43;;;3.80;99.90;;;;;;5011245;28;20382;-61
2022/11/04 03:11:51;;;;;;;23.35;7.68;;;3.70;99.90;;;;;;5011048;28;20049;-73
2022/11/04 03:14:25;;;;;;;20.23;7.53;;;3.70;99.90;;;;;;5010989;28;20046;-64
2022/11/04 03:16:59;;;;;;;18.90;7.10;;;3.70;99.90;;;;;;5024020;28;20053;-62
2022/11/04 03:19:53;;;;;;;20.63;7.82;;;3.70;99.90;;;;;;5034609;28;20128;-65
2022/11/04 03:22:23;;;;;;;19.35;7.07;;;3.70;99.90;;;;;;5033269;28;20049;-71
2022/11/04 03:24:51;;;;;;;20.20;7.88;;;3.60;99.90;;;;;;5034404;28;20048;-63
2022/11/04 03:27:44;;;;;;;21.23;7.30;;;3.60;99.90;;;;;;5034283;28;20049;-61
2022/11/04 03:30:19;;;;;;;31.60;9.35;;;3.50;99.90;;;;;;5033439;28;20046;-61
2022/11/04 03:33:10;;;;;;;19.10;7.97;;;3.50;99.90;;;;;;5034221;28;20388;-61
2022/11/04 03:35:39;;;;;;;28.63;9.52;;;3.50;99.90;;;;;;5033996;28;20053;-62
2022/11/04 03:38:07;;;;;;;27.65;8.65;;;3.50;99.90;;;;;;5029626;28;20072;-63
2022/11/04 03:40:35;;;;;;;19.45;7.75;;;3.50;99.90;;;;;;5014471;28;20049;-61
2022/11/04 03:43:28;;;;;;;20.13;7.63;;;3.40;99.90;;;;;;5014280;28;20049;-62
2022/11/04 03:45:56;;;;;;;25.95;9.88;;;3.40;99.90;;;;;;5016888;28;20498;-63
2022/11/04 03:48:24;;;;;;;20.90;9.10;;;3.40;99.90;;;;;;5034260;28;20045;-65
2022/11/04 03:50:52;;;;;;;27.00;8.80;;;3.30;99.90;;;;;;5034002;28;20038;-65
2022/11/04 03:53:22;;;;;;;26.15;9.48;;;3.30;99.90;;;;;;5033781;28;20060;-62
2022/11/04 03:56:27;;;;;;;26.02;9.68;;;3.30;99.90;;;;;;5033864;28;20057;-63
2022/11/04 03:59:14;;;;;;;22.98;8.80;;;3.30;99.90;;;;;;5033701;28;20049;-63
2022/11/04 04:01:49;;;;;;;27.17;9.13;;;3.30;99.90;;;;;;5033695;28;20053;-69
2022/11/04 04:04:34;;;;;;;20.33;8.27;;;3.30;99.90;;;;;;5032635;28;20047;-61
2022/11/04 04:07:15;;;;;;;24.85;8.93;;;3.30;99.90;;;;;;5032677;28;20052;-62
2022/11/04 04:09:53;;;;;;;18.35;8.32;;;3.30;99.90;;;;;;5033654;28;20061;-62
2022/11/04 04:12:32;;;;;;;18.42;8.60;;;3.30;99.90;;;;;;5033511;28;20060;-62
2022/11/04 04:15:20;;;;;;;20.77;9.27;;;3.30;99.90;;;;;;5033523;28;20053;-66
2022/11/04 04:18:00;;;;;;;33.45;10.13;;;3.20;99.90;;;;;;5033398;28;20052;-67
2022/11/04 04:20:31;;;;;;;25.42;10.85;;;3.20;99.90;;;;;;5033639;28;20433;-67
2022/11/04 04:28:55;;;;;;;27.08;9.02;;;3.20;99.90;;;;;;5032559;28;20489;-67
2022/11/04 04:34:10;;;;;;;20.88;8.32;;;3.10;99.90;;;;;;5032975;28;20049;-65
2022/11/04 04:36:47;;;;;;;21.15;8.63;;;3.10;99.90;;;;;;5032091;28;20053;-63
2022/11/04 04:44:58;;;;;;;24.98;8.63;;;3.10;99.90;;;;;;5032836;28;20045;-63
2022/11/04 04:47:31;;;;;;;25.40;8.82;;;3.10;99.90;;;;;;5032722;28;20053;-62
2022/11/04 04:50:00;;;;;;;30.27;9.40;;;3.10;99.90;;;;;;5033045;28;20041;-66
2022/11/04 04:52:33;;;;;;;;;;;3.10;99.90;;;;;;5032836;28;20053;-66
2022/11/04 04:55:00;;;;;;;17.65;7.82;;;3.10;99.90;;;;;;5032790;28;19928;-64
2022/11/04 04:57:28;;;;;;;24.33;8.60;;;3.10;99.90;;;;;;5032696;28;20046;-63
2022/11/04 04:59:56;;;;;;;19.48;7.45;;;3.20;99.90;;;;;;5032862;28;20049;-67
2022/11/04 05:02:23;;;;;;;26.98;9.95;;;3.10;99.90;;;;;;5032571;28;20057;-61
2022/11/04 05:04:51;;;;;;;19.30;7.85;;;3.10;99.90;;;;;;5024745;28;20056;-62
2022/11/04 05:07:18;;;;;;;27.13;9.40;;;3.20;99.90;;;;;;5016656;28;20045;-61
2022/11/04 05:09:46;;;;;;;19.98;9.43;;;3.10;99.90;;;;;;5027358;28;20037;-68
2022/11/04 05:12:14;;;;;;;36.35;9.27;;;3.20;99.90;;;;;;5015338;28;20045;-69
2022/11/04 05:14:41;;;;;;;26.63;8.40;;;3.10;99.90;;;;;;5026755;28;20045;-63
2022/11/04 05:17:09;;;;;;;25.30;9.57;;;3.10;99.90;;;;;;5028670;28;20053;-65
2022/11/04 05:19:37;;;;;;;27.88;8.70;;;3.20;99.90;;;;;;5024202;28;20049;-62
2022/11/04 05:22:04;;;;;;;29.40;9.30;;;3.20;99.90;;;;;;5019795;28;20050;-65
2022/11/04 05:24:32;;;;;;;24.63;9.80;;;3.20;99.90;;;;;;5009857;28;20061;-61
2022/11/04 05:26:59;;;;;;;29.35;9.55;;;3.20;99.90;;;;;;5031233;28;20045;-62
2022/11/04 05:29:27;;;;;;;24.95;8.60;;;3.20;99.90;;;;;;5031943;28;20045;-66
2022/11/04 05:31:55;;;;;;;23.33;8.85;;;3.20;99.90;;;;;;5023032;28;20501;-62
2022/11/04 05:34:23;;;;;;;24.70;8.75;;;3.20;99.90;;;;;;5012229;28;20049;-63
2022/11/04 05:36:50;;;;;;;25.67;9.00;;;3.20;99.90;;;;;;5010843;28;20390;-62
2022/11/04 05:39:18;;;;;;;28.42;10.45;;;3.20;99.90;;;;;;5010952;28;20046;-63
2022/11/04 05:41:46;;;;;;;20.38;8.35;;;3.20;99.90;;;;;;5012325;28;20057;-62
2022/11/04 05:44:14;;;;;;;30.10;10.30;;;3.20;99.90;;;;;;5012194;28;20057;-63
2022/11/04 05:46:42;;;;;;;24.13;8.55;;;3.20;99.90;;;;;;5020855;28;20045;-62
2022/11/04 05:49:09;;;;;;;28.13;9.63;;;3.10;99.90;;;;;;5020902;28;20046;-67
2022/11/04 05:51:37;;;;;;;32.53;7.95;;;3.10;99.90;;;;;;5027180;28;20048;-62
2022/11/04 05:54:05;;;;;;;29.58;8.88;;;3.10;99.90;;;;;;5012697;28;20474;-61
2022/11/04 05:56:32;;;;;;;25.60;9.98;;;3.10;99.90;;;;;;5007410;28;20477;-61
2022/11/04 05:59:00;;;;;;;18.42;8.55;;;3.10;99.90;;;;;;5024996;28;20492;-60
2022/11/04 06:01:29;;;;;;;28.40;8.82;;;3.10;99.90;;;;;;5028260;28;20060;-62
2022/11/04 06:03:58;;;;;;;25.08;8.93;;;3.10;99.90;;;;;;5016539;28;20056;-62
2022/11/04 06:06:28;;;;;;;25.85;8.52;;;3.10;99.90;;;;;;5023899;28;20054;-63
2022/11/04 06:08:57;;;;;;;19.52;8.70;;;3.00;99.90;;;;;;5024684;28;20382;-64
2022/11/04 06:11:26;;;;;;;27.35;8.32;;;3.00;99.90;;;;;;5026443;28;20042;-62
2022/11/04 06:13:55;;;;;;;17.60;7.67;;;3.00;99.90;;;;;;5024531;28;20400;-64
2022/11/04 06:16:23;;;;;;;27.38;9.18;;;3.00;99.90;;;;;;5024627;28;20045;-61
2022/11/04 06:18:51;;;;;;;22.65;8.68;;;3.00;99.90;;;;;;5024335;28;20057;-65
2022/11/04 06:21:31;;;;;;;22.80;9.13;;;3.00;99.90;;;;;;5025864;28;20045;-61
2022/11/04 06:23:59;;;;;;;33.80;9.43;;;3.00;99.90;;;;;;5022898;28;20061;-65
2022/11/04 06:26:30;;;;;;;19.83;9.23;;;3.00;99.90;;;;;;5011070;28;20553;-63
2022/11/04 06:28:57;;;;;;;23.80;9.95;;;3.00;99.90;;;;;;5027597;28;20058;-62
2022/11/04 06:31:25;;;;;;;32.47;11.70;;;3.10;99.90;;;;;;5008619;28;21558;-61
2022/11/04 06:33:52;;;;;;;33.30;10.52;;;3.10;99.90;;;;;;5018383;28;20049;-62
2022/11/04 06:36:20;;;;;;;28.02;9.55;;;3.10;99.90;;;;;;5007167;28;20046;-66
2022/11/04 06:38:48;;;;;;;24.17;10.38;;;3.20;99.90;;;;;;5013317;28;20619;-64
2022/11/04 06:41:16;;;;;;;26.98;10.52;;;3.20;99.90;;;;;;5026257;28;20045;-69
2022/11/04 06:43:44;;;;;;;27.48;9.60;;;3.20;99.90;;;;;;5020777;28;20483;-62
2022/11/04 06:46:26;;;;;;;21.90;9.23;;;3.10;99.90;;;;;;5003180;28;20057;-63
2022/11/04 06:48:55;;;;;;;28.77;8.70;;;3.00;99.90;;;;;;5008839;28;20056;-66
2022/11/04 06:51:24;;;;;;;31.98;9.32;;;3.10;99.90;;;;;;5015296;28;20046;-65
2022/11/04 06:53:52;;;;;;;30.92;9.38;;;3.00;99.90;;;;;;5020018;28;20051;-63
2022/11/04 06:56:20;;;;;;;25.08;8.18;;;3.00;99.90;;;;;;5007579;28;20072;-63
2022/11/04 06:58:52;;;;;;;20.83;8.50;;;3.10;99.90;;;;;;5025694;28;20049;-61
2022/11/04 07:01:21;;;;;;;21.90;9.15;;;3.00;99.90;;;;;;5021500;28;20046;-65
2022/11/04 07:03:51;;;;;;;20.88;7.90;;;3.00;99.90;;;;;;5013766;28;20057;-68
2022/11/04 07:06:19;;;;;;;21.60;7.93;;;2.90;99.90;;;;;;5016946;28;20049;-63
2022/11/04 07:08:48;;;;;;;22.30;8.88;;;2.90;99.90;;;;;;5024472;28;20050;-64
2022/11/04 07:11:19;;;;;;;24.63;9.07;;;2.90;99.90;;;;;;5014220;28;20044;-61
2022/11/04 07:13:48;;;;;;;26.65;8.48;;;2.90;99.90;;;;;;5017794;28;20049;-65
2022/11/04 07:16:16;;;;;;;23.75;8.65;;;2.80;99.90;;;;;;5016088;28;20393;-68
2022/11/04 07:18:45;;;;;;;22.05;8.50;;;;;;;;;;5026527;28;20056;-63
2022/11/04 07:21:12;;;;;;;19.38;7.93;;;2.80;99.90;;;;;;5027310;28;20050;-65
2022/11/04 07:23:40;;;;;;;24.65;9.65;;;2.80;99.90;;;;;;5020455;28;20034;-63
2022/11/04 07:26:09;;;;;;;19.55;9.02;;;2.80;99.90;;;;;;5018472;28;20041;-63
2022/11/04 07:28:38;;;;;;;26.00;8.38;;;2.70;99.90;;;;;;5025439;28;20474;-65
2022/11/04 07:31:06;;;;;;;23.17;8.75;;;2.70;99.90;;;;;;5031114;28;20060;-62
2022/11/04 07:33:34;;;;;;;21.88;9.40;;;2.70;99.90;;;;;;5029055;28;20042;-72
2022/11/04 07:36:04;;;;;;;19.55;7.63;;;2.70;99.90;;;;;;5018527;28;20053;-70
2022/11/04 07:38:32;;;;;;;23.15;8.45;;;2.70;99.90;;;;;;5021805;28;20061;-74
2022/11/04 07:41:01;;;;;;;28.92;9.43;;;2.70;99.90;;;;;;5018250;28;20042;-70
2022/11/04 07:43:29;;;;;;;21.70;8.27;;;2.70;99.90;;;;;;5021774;28;20421;-65
2022/11/04 07:46:01;;;;;;;19.35;8.90;;;2.70;99.90;;;;;;5014482;28;20064;-62
2022/11/04 07:48:29;;;;;;;20.13;9.65;;;2.70;99.90;;;;;;5028368;28;20046;-63
2022/11/04 07:50:58;;;;;;;23.50;9.90;;;2.80;99.90;;;;;;5012262;28;20124;-61
2022/11/04 07:53:28;;;;;;;23.85;10.52;;;2.80;99.90;;;;;;5007953;28;20057;-62
2022/11/04 07:55:56;;;;;;;25.83;9.85;;;2.90;99.90;;;;;;5024432;28;20053;-64
2022/11/04 07:58:25;;;;;;;23.50;10.68;;;2.90;99.90;;;;;;5010300;28;20042;-62
2022/11/04 08:01:00;;;;;;;19.63;9.10;;;2.90;99.90;;;;;;5020808;28;20049;-67
2022/11/04 08:03:28;;;;;;;22.25;9.95;;;3.00;99.90;;;;;;5005687;28;20394;-67
2022/11/04 08:06:01;;;;;;;23.55;9.68;;;3.00;99.90;;;;;;5014446;28;20050;-67
2022/11/04 08:08:29;;;;;;;25.05;10.07;;;3.00;99.90;;;;;;5015106;28;20050;-68
2022/11/04 08:11:00;;;;;;;22.58;10.20;;;3.20;99.90;;;;;;5010792;28;20049;-62
2022/11/04 08:13:29;;;;;;;22.67;9.70;;;3.20;99.90;;;;;;5013724;28;20421;-61
2022/11/04 08:16:02;;;;;;;23.58;10.75;;;3.70;99.90;;;;;;5023030;28;20049;-63
2022/11/04 08:18:31;;;;;;;21.25;9.88;;;3.30;99.90;;;;;;5027623;28;20046;-63
2022/11/04 08:20:59;;;;;;;25.88;11.80;;;3.40;99.90;;;;;;5021570;28;20045;-62
2022/11/04 08:23:26;;;;;;;25.00;10.38;;;3.40;99.90;;;;;;5021348;28;20048;-63
2022/11/04 08:25:55;;;;;;;27.85;9.18;;;3.50;99.90;;;;;;5010013;28;20061;-62
2022/11/04 08:28:23;;;;;;;25.60;10.35;;;3.60;99.90;;;;;;5014890;28;20053;-65
2022/11/04 08:31:03;;;;;;;21.02;9.18;;;3.70;99.90;;;;;;5006490;28;20422;-62
2022/11/04 08:33:32;;;;;;;24.02;9.68;;;3.80;99.90;;;;;;5009468;28;20506;-63
2022/11/04 08:36:03;;;;;;;31.95;11.70;;;3.90;99.90;;;;;;5009320;28;20056;-73
2022/11/04 08:38:33;;;;;;;22.45;10.80;;;4.10;99.90;;;;;;5021076;28;20037;-74
2022/11/04 08:41:02;;;;;;;24.50;9.52;;;4.10;99.90;;;;;;5029456;28;20049;-72
2022/11/04 08:43:30;;;;;;;31.10;10.30;;;4.30;99.90;;;;;;5025176;28;20060;-77
2022/11/04 08:46:02;;;;;;;31.88;12.52;;;4.50;99.90;;;;;;5012767;28;20057;-64
2022/11/04 08:48:30;;;;;;;31.92;9.93;;;4.60;99.90;;;;;;5029304;28;20045;-70
2022/11/04 08:50:58;;;;;;;23.25;9.70;;;4.80;99.90;;;;;;5029937;28;20045;-71
2022/11/04 08:53:26;;;;;;;18.50;9.13;;;4.90;99.90;;;;;;5027950;28;20053;-71
2022/11/04 08:55:54;;;;;;;28.05;10.10;;;5.00;99.90;;;;;;5029264;28;20053;-73
2022/11/04 08:58:22;;;;;;;17.20;8.48;;;5.20;99.90;;;;;;5026317;28;20513;-76
2022/11/04 09:00:51;;;;;;;22.38;8.05;;;5.30;99.90;;;;;;5007504;28;20413;-74
2022/11/04 09:03:18;;;;;;;20.95;8.73;;;5.40;99.90;;;;;;5018306;28;20057;-70
2022/11/04 09:05:47;;;;;;;20.80;8.80;;;5.50;99.90;;;;;;5026702;28;20054;-75
2022/11/04 09:08:16;;;;;;;18.98;6.90;;;5.60;99.90;;;;;;5029195;28;20049;-64
2022/11/04 09:10:46;;;;;;;22.98;6.15;;;5.70;99.90;;;;;;5029483;28;20374;-63
2022/11/04 09:13:15;;;;;;;18.52;5.45;;;5.80;99.90;;;;;;5028385;28;20049;-63
2022/11/04 09:15:43;;;;;;;20.27;5.63;;;6.00;99.90;;;;;;5026089;28;20049;-65
2022/11/04 09:18:11;;;;;;;21.75;5.95;;;6.10;99.90;;;;;;5028568;28;20056;-67
2022/11/04 09:20:38;;;;;;;16.88;4.85;;;6.20;99.90;;;;;;5026969;28;20049;-65
2022/11/04 09:23:06;;;;;;;12.30;4.78;;;6.30;99.90;;;;;;5027642;28;20397;-66
2022/11/04 09:25:35;;;;;;;11.82;6.18;;;6.40;99.90;;;;;;5028866;28;20052;-65
2022/11/04 09:28:03;;;;;;;13.60;5.38;;;6.50;99.90;;;;;;5026655;28;20429;-64
2022/11/04 09:30:31;;;;;;;11.60;4.70;;;6.70;99.90;;;;;;5015025;28;20140;-65
2022/11/04 09:32:59;;;;;;;10.85;4.22;;;6.70;99.90;;;;;;5026846;28;20048;-64
2022/11/04 09:35:27;;;;;;;9.20;4.30;;;6.80;99.90;;;;;;5021754;28;20042;-66
2022/11/04 09:37:55;;;;;;;16.00;4.20;;;6.90;99.90;;;;;;5014622;28;20819;-68
2022/11/04 09:40:24;;;;;;;10.70;4.22;;;7.00;99.90;;;;;;5028542;28;20050;-65
2022/11/04 09:43:19;;;;;;;10.00;3.30;;;7.10;99.90;;;;;;5028391;28;20050;-65
2022/11/04 09:45:46;;;;;;;11.32;3.40;;;7.30;99.90;;;;;;5010566;28;20425;-64
2022/11/04 09:48:54;;;;;;;11.48;3.40;;;7.40;99.90;;;;;;5021618;28;20041;-62
2022/11/04 09:51:25;;;;;;;17.23;3.60;;;7.50;99.90;;;;;;5024616;28;20049;-66
2022/11/04 09:54:19;;;;;;;11.35;3.25;;;7.60;99.90;;;;;;5007837;28;20611;-66
2022/11/04 09:56:50;;;;;;;10.02;3.20;;;7.70;99.90;;;;;;5011450;28;20527;-62
2022/11/04 09:59:33;;;;;;;7.65;2.78;;;7.80;99.90;;;;;;5017752;28;20050;-63
2022/11/04 10:02:35;;;;;;;7.53;2.55;;;7.80;99.90;;;;;;5008015;28;20433;-63
2022/11/04 10:05:20;;;;;;;11.02;2.22;;;7.90;99.90;;;;;;5017410;28;20049;-66
2022/11/04 10:08:16;;;;;;;10.15;2.50;;;8.00;99.90;;;;;;5013710;28;20071;-63
2022/11/04 10:10:49;;;;;;;10.95;2.72;;;8.10;99.90;;;;;;5026966;28;20053;-62
2022/11/04 10:14:03;;;;;;;10.82;2.90;;;8.30;99.90;;;;;;5021071;28;20037;-64
2022/11/04 10:16:37;;;;;;;7.53;2.40;;;8.40;99.90;;;;;;5017209;28;20077;-74
2022/11/04 10:19:05;;;;;;;4.35;1.70;;;8.40;99.90;;;;;;5027750;28;20041;-69
2022/11/04 10:21:57;;;;;;;11.32;2.75;;;8.50;99.90;;;;;;5020123;28;20049;-74
2022/11/04 10:24:42;;;;;;;4.95;2.10;;;8.60;99.90;;;;;;5024001;28;20071;-72
2022/11/04 10:27:17;;;;;;;6.93;1.83;;;8.80;99.90;;;;;;5012351;28;20049;-64
2022/11/04 10:29:51;;;;;;;9.10;2.63;;;8.90;99.90;;;;;;5024747;28;20050;-69
2022/11/04 10:32:35;;;;;;;8.93;2.28;;;9.10;99.90;;;;;;5014527;28;20057;-65
2022/11/04 10:35:24;;;;;;;4.30;1.80;;;9.20;99.90;;;;;;5030846;28;20595;-66
2022/11/04 10:37:54;;;;;;;8.00;1.80;;;9.30;99.90;;;;;;5031829;28;20396;-63
2022/11/04 10:40:35;;;;;;;7.88;2.53;;;9.40;99.90;;;;;;5032140;28;20049;-67
2022/11/04 10:43:08;;;;;;;7.75;2.00;;;9.60;99.90;;;;;;5031482;28;20053;-65
2022/11/04 10:45:46;;;;;;;5.70;2.08;;;9.80;99.90;;;;;;5029835;28;20401;-67
2022/11/04 10:48:52;;;;;;;5.78;2.47;;;9.90;99.90;;;;;;5031641;28;20056;-64
2022/11/04 10:51:21;;;;;;;5.53;2.90;;;9.90;99.90;;;;;;5020091;28;20485;-67
2022/11/04 10:53:54;;;;;;;9.80;2.70;;;9.80;99.90;;;;;;5004618;28;20053;-68
2022/11/04 10:56:28;;;;;;;5.15;3.03;;;9.60;99.90;;;;;;5031707;28;20061;-64
2022/11/04 10:59:03;;;;;;;8.73;3.17;;;9.50;99.90;;;;;;5030571;28;20037;-61
2022/11/04 11:01:33;;;;;;;11.10;4.07;;;9.50;99.90;;;;;;5012418;28;20520;-60
2022/11/04 11:04:05;;;;;;;10.07;2.95;;;9.50;99.90;;;;;;5027460;28;20064;-60
2022/11/04 11:06:35;;;;;;;8.63;2.95;;;9.50;99.90;;;;;;5025731;28;20042;-65
2022/11/04 11:09:18;;;;;;;10.25;3.25;;;9.40;99.90;;;;;;5025456;28;20041;-62
2022/11/04 11:11:49;;;;;;;11.10;3.10;;;9.40;99.90;;;;;;5010628;28;20052;-60
2022/11/04 11:14:18;;;;;;;6.10;3.03;;;9.60;99.90;;;;;;5028772;28;20041;-60
2022/11/04 11:16:46;;;;;;;9.27;2.70;;;10.00;99.90;;;;;;5018847;28;20046;-61
2022/11/04 11:19:17;;;;;;;13.60;2.38;;;10.30;99.90;;;;;;5014628;28;20042;-60
2022/11/04 11:21:50;;;;;;;11.48;3.42;;;10.70;99.90;;;;;;5015217;28;20405;-60
2022/11/04 11:24:26;;;;;;;4.32;1.70;;;10.70;99.90;;;;;;5027988;28;20512;-61
2022/11/04 11:26:56;;;;;;;4.28;1.38;;;11.10;99.90;;;;;;5016717;28;20045;-65
2022/11/04 11:29:30;;;;;;;3.22;1.35;;;11.90;99.90;;;;;;5019551;28;21001;-67
2022/11/04 11:31:59;;;;;;;6.40;1.45;;;11.90;99.90;;;;;;5013379;28;20500;-63
2022/11/04 11:34:36;;;;;;;5.05;1.40;;;11.80;99.90;;;;;;5024921;28;20401;-64
2022/11/04 11:37:14;;;;;;;7.07;1.73;;;11.80;99.90;;;;;;5027354;28;20068;-62
2022/11/04 11:39:43;;;;;;;4.53;1.50;;;11.90;99.90;;;;;;5017195;28;20053;-61
2022/11/04 11:42:14;;;;;;;5.32;1.67;;;11.80;99.90;;;;;;5028269;28;20489;-67
2022/11/04 11:44:55;;;;;;;6.60;1.63;;;11.70;99.90;;;;;;5027424;28;20050;-65
2022/11/04 11:47:28;;;;;;;;;;;11.40;99.90;;;;;;5021365;28;20132;-61
2022/11/04 11:50:08;;;;;;;5.18;1.70;;;11.20;99.90;;;;;;5017286;28;19921;-62
2022/11/04 11:52:37;;;;;;;5.93;1.73;;;11.00;99.90;;;;;;5030528;28;20061;-61
2022/11/04 11:55:27;;;;;;;8.93;2.42;;;10.80;99.90;;;;;;5030504;28;20061;-62
2022/11/04 11:58:30;;;;;;;6.57;2.75;;;10.70;99.90;;;;;;5030588;28;20045;-60
2022/11/04 12:01:33;;;;;;;7.00;2.20;;;10.70;99.90;;;;;;5024766;28;20038;-60
2022/11/04 12:04:02;;;;;;;7.70;2.55;;;10.60;99.90;;;;;;5026150;28;20060;-66
2022/11/04 12:07:02;;;;;;;4.93;1.98;;;10.70;99.90;;;;;;5030088;28;20048;-61
2022/11/04 12:10:02;;;;;;;6.30;2.70;;;11.30;99.90;;;;;;5010589;28;20046;-62
2022/11/04 12:12:46;;;;;;;5.97;1.70;;;11.90;99.90;;;;;;5014226;28;20056;-61
2022/11/04 12:15:32;;;;;;;9.20;1.70;;;12.30;99.90;;;;;;5024888;28;20077;-64
2022/11/04 12:18:22;;;;;;;6.78;1.88;;;13.00;99.90;;;;;;5029386;28;20053;-61
2022/11/04 12:21:07;;;;;;;5.57;2.22;;;13.70;99.90;;;;;;5030206;28;20049;-61
2022/11/04 12:23:55;;;;;;;6.40;2.70;;;14.10;99.90;;;;;;5029957;28;20050;-66
2022/11/04 12:26:40;;;;;;;9.25;1.48;;;14.40;99.90;;;;;;5030220;28;20041;-65
2022/11/04 12:29:26;;;;;;;5.32;1.40;;;14.30;99.90;;;;;;5029589;28;20533;-69
2022/11/04 12:32:17;;;;;;;3.50;1.15;;;13.80;99.90;;;;;;5012297;28;20042;-71
2022/11/04 12:35:08;;;;;;;8.00;1.60;;;12.60;99.90;;;;;;5022756;28;20046;-70
2022/11/04 12:38:04;;;;;;;4.45;1.35;;;12.70;99.90;;;;;;5028283;28;20382;-59
2022/11/04 12:40:46;;;;;;;8.20;1.38;;;12.30;99.90;;;;;;5028659;28;20053;-60
2022/11/04 12:44:14;;;;;;;4.07;1.55;;;12.20;99.90;;;;;;5019597;28;20236;-63
2022/11/04 12:46:53;;;;;;;6.72;1.73;;;13.00;99.90;;;;;;5023010;28;20053;-69
2022/11/04 12:49:46;;;;;;;4.18;1.10;;;13.80;99.90;;;;;;5028715;28;20405;-65
2022/11/04 12:52:25;;;;;;;6.10;1.13;;;14.70;99.90;;;;;;5029391;28;20049;-65
2022/11/04 12:54:56;;;;;;;3.97;0.93;;;15.30;99.90;;;;;;5029097;28;20045;-73
2022/11/04 12:57:32;;;;;;;3.53;1.30;;;16.00;99.90;;;;;;5028283;28;20057;-70
2022/11/04 13:00:15;;;;;;;5.47;1.70;;;16.50;99.90;;;;;;5029574;28;20061;-66
2022/11/04 13:02:59;;;;;;;5.40;2.50;;;17.00;99.90;;;;;;5013893;28;20052;-70
2022/11/04 13:05:46;;;;;;;7.00;1.40;;;17.00;99.90;;;;;;5007857;28;20386;-66
2022/11/04 13:08:45;;;;;;;7.47;3.10;;;16.80;99.90;;;;;;5018648;28;20041;-63
2022/11/04 13:11:45;;;;;;;7.22;3.13;;;16.20;99.90;;;;;;5029354;28;20052;-62
2022/11/04 13:14:28;;;;;;;8.18;2.35;;;15.30;99.90;;;;;;5027537;28;20052;-60
2022/11/04 13:16:59;;;;;;;8.95;2.67;;;14.60;99.90;;;;;;5024873;28;20048;-70
2022/11/04 13:19:51;;;;;;;7.13;1.92;;;14.10;99.90;;;;;;5028837;28;20050;-71
2022/11/04 13:22:27;;;;;;;2.03;0.60;;;14.30;99.90;;;;;;5028905;28;20057;-73
2022/11/04 13:25:02;;;;;;;2.90;1.00;;;14.70;99.90;;;;;;5027598;28;20626;-70
2022/11/04 13:27:36;;;;;;;4.30;1.00;;;15.90;99.90;;;;;;5028425;28;20046;-72
2022/11/04 13:30:13;;;;;;;7.10;1.50;;;15.90;99.90;;;;;;5008286;28;20048;-67
2022/11/04 13:33:07;;;;;;;2.97;0.60;;;16.40;99.90;;;;;;5012990;28;20072;-63
2022/11/04 13:36:00;;;;;;;5.40;1.50;;;16.80;99.90;;;;;;5007783;28;20050;-66
2022/11/04 13:38:39;;;;;;;2.22;0.40;;;17.20;99.90;;;;;;5019705;28;20041;-69
2022/11/04 13:41:20;;;;;;;5.88;0.60;;;17.50;99.90;;;;;;5028831;28;20048;-62
2022/11/04 13:43:55;;;;;;;6.28;1.85;;;17.60;99.90;;;;;;5027111;28;20044;-69
2022/11/04 13:46:29;;;;;;;5.45;2.13;;;17.60;99.90;;;;;;5018060;28;20056;-65
2022/11/04 13:49:05;;;;;;;6.28;1.83;;;17.60;99.90;;;;;;5026913;28;20045;-72
2022/11/04 13:51:38;;;;;;;6.63;1.40;;;17.50;99.90;;;;;;5028333;28;20041;-62
2022/11/04 13:54:28;;;;;;;8.88;1.17;;;17.40;99.90;;;;;;5028103;28;20049;-61
2022/11/04 13:57:09;;;;;;;4.10;0.77;;;16.90;99.90;;;;;;5028438;28;20516;-61
2022/11/04 13:59:37;;;;;;;5.85;0.50;;;16.10;99.80;;;;;;5008631;28;20526;-61
2022/11/04 14:02:10;;;;;;;5.40;0.60;;;15.40;99.90;;;;;;5008136;28;20053;-68